createdAt,value
2022-10-22T00:01:49.357Z,40.75
2022-10-22T00:04:21.997Z,38.47
2022-10-22T00:06:54.765Z,45.28
2022-10-22T00:09:27.296Z,40.13
2022-10-22T00:12:00.008Z,39.10
2022-10-22T00:14:32.528Z,36.92
2022-10-22T00:17:08.028Z,38.30
2022-10-22T00:19:43.320Z,33.95
2022-10-22T00:22:16.512Z,36.13
2022-10-22T00:24:48.979Z,40.75
2022-10-22T00:27:21.726Z,34.00
2022-10-22T00:29:54.216Z,37.53
2022-10-22T00:32:27.357Z,39.70
2022-10-22T00:34:59.844Z,36.42
2022-10-22T00:37:32.728Z,38.83
2022-10-22T00:40:05.868Z,39.38
2022-10-22T00:42:39.432Z,41.20
2022-10-22T00:45:12.092Z,37.63
2022-10-22T00:47:50.940Z,39.00
2022-10-22T00:50:49.188Z,41.88
2022-10-22T00:53:27.752Z,37.97
2022-10-22T00:56:00.399Z,42.47
2022-10-22T00:58:39.055Z,32.60
2022-10-22T01:01:17.324Z,47.17
2022-10-22T01:03:51.316Z,44.03
2022-10-22T01:06:33.185Z,42.65
2022-10-22T01:09:11.675Z,41.50
2022-10-22T01:12:06.415Z,38.60
2022-10-22T01:14:54.436Z,44.20
2022-10-22T01:17:45.873Z,44.58
2022-10-22T01:20:45.902Z,39.13
2022-10-22T01:23:46.288Z,39.78
2022-10-22T01:26:51.740Z,32.83
2022-10-22T01:29:47.972Z,41.03
2022-10-22T01:32:25.947Z,39.20
2022-10-22T01:35:04.516Z,44.40
2022-10-22T01:37:50.289Z,39.90
2022-10-22T01:40:24.029Z,40.92
2022-10-22T01:43:02.738Z,44.38
2022-10-22T01:45:45.659Z,44.85
2022-10-22T01:48:33.407Z,41.45
2022-10-22T01:51:29.867Z,44.33
2022-10-22T01:54:31.532Z,52.13
2022-10-22T01:57:18.043Z,42.50
2022-10-22T02:00:09.502Z,41.30
2022-10-22T02:02:50.685Z,42.75
2022-10-22T02:05:51.151Z,40.53
2022-10-22T02:08:46.485Z,40.75
2022-10-22T02:11:19.411Z,35.97
2022-10-22T02:13:56.307Z,38.63
2022-10-22T02:16:35.099Z,40.40
2022-10-22T02:19:24.558Z,40.20
2022-10-22T02:21:57.427Z,40.28
2022-10-22T02:24:30.191Z,42.15
2022-10-22T02:27:26.736Z,40.38
2022-10-22T02:30:06.993Z,43.20
2022-10-22T02:32:42.768Z,36.67
2022-10-22T02:35:20.295Z,50.38
2022-10-22T02:37:55.459Z,44.28
2022-10-22T02:40:30.709Z,41.83
2022-10-22T02:43:06.014Z,45.90
2022-10-22T02:45:38.727Z,35.58
2022-10-22T02:48:11.474Z,37.33
2022-10-22T02:50:43.967Z,33.67
2022-10-22T02:53:16.652Z,39.08
2022-10-22T02:55:49.219Z,35.67
2022-10-22T02:58:21.899Z,36.58
2022-10-22T03:00:54.391Z,38.60
2022-10-22T03:03:27.425Z,32.17
2022-10-22T03:05:59.903Z,30.55
2022-10-22T03:08:32.711Z,36.13
2022-10-22T03:11:05.294Z,39.28
2022-10-22T03:13:38.070Z,36.65
2022-10-22T03:16:10.628Z,38.78
2022-10-22T03:18:43.578Z,36.45
2022-10-22T03:21:24.800Z,38.65
2022-10-22T03:23:58.170Z,35.05
2022-10-22T03:26:30.748Z,33.55
2022-10-22T03:29:03.479Z,31.25
2022-10-22T03:31:35.952Z,32.05
2022-10-22T03:34:08.767Z,35.25
2022-10-22T03:36:42.097Z,35.28
2022-10-22T03:39:16.173Z,31.27
2022-10-22T03:41:49.941Z,28.73
2022-10-22T03:44:23.709Z,37.05
2022-10-22T03:46:58.784Z,34.42
2022-10-22T03:49:34.549Z,34.97
2022-10-22T03:52:13.938Z,29.88
2022-10-22T03:54:46.877Z,34.75
2022-10-22T03:57:19.461Z,32.38
2022-10-22T03:59:52.116Z,32.42
2022-10-22T04:02:24.584Z,33.15
2022-10-22T04:04:57.258Z,32.38
2022-10-22T04:07:29.817Z,33.20
2022-10-22T04:10:02.650Z,30.55
2022-10-22T04:12:35.153Z,35.72
2022-10-22T04:15:08.696Z,31.63
2022-10-22T04:17:42.293Z,31.25
2022-10-22T04:20:15.141Z,27.20
2022-10-22T04:22:47.620Z,31.73
2022-10-22T04:25:20.300Z,32.30
2022-10-22T04:27:52.795Z,31.20
2022-10-22T04:30:25.468Z,31.55
2022-10-22T04:32:57.961Z,33.70
2022-10-22T04:35:31.016Z,27.67
2022-10-22T04:38:03.469Z,30.63
2022-10-22T04:40:36.125Z,33.92
2022-10-22T04:43:08.646Z,28.95
2022-10-22T04:45:41.372Z,32.90
2022-10-22T04:48:13.915Z,31.08
2022-10-22T04:50:46.860Z,36.42
2022-10-22T04:53:19.461Z,33.33
2022-10-22T04:55:52.164Z,34.72
2022-10-22T04:58:24.680Z,37.97
2022-10-22T05:00:57.420Z,33.92
2022-10-22T05:03:29.924Z,35.80
2022-10-22T05:06:02.813Z,35.22
2022-10-22T05:08:35.583Z,32.20
2022-10-22T05:11:16.369Z,35.08
2022-10-22T05:13:49.153Z,35.92
2022-10-22T05:16:21.812Z,36.95
2022-10-22T05:18:54.350Z,34.80
2022-10-22T05:21:27.680Z,33.83
2022-10-22T05:24:00.309Z,35.92
2022-10-22T05:26:33.008Z,36.25
2022-10-22T05:29:05.480Z,36.42
2022-10-22T05:31:38.979Z,36.72
2022-10-22T05:34:11.777Z,38.65
2022-10-22T05:36:44.797Z,43.92
2022-10-22T05:39:17.269Z,39.00
2022-10-22T05:41:50.043Z,41.03
2022-10-22T05:44:22.573Z,46.05
2022-10-22T05:46:55.546Z,45.30
2022-10-22T05:49:28.028Z,40.25
2022-10-22T05:52:00.712Z,45.58
2022-10-22T05:54:33.281Z,44.10
2022-10-22T05:57:06.007Z,49.97
2022-10-22T05:59:38.473Z,54.85
2022-10-22T06:02:11.282Z,55.78
2022-10-22T06:04:43.841Z,56.22
2022-10-22T06:07:21.380Z,59.35
2022-10-22T06:09:56.850Z,55.00
2022-10-22T06:12:29.673Z,49.15
2022-10-22T06:15:02.153Z,54.88
2022-10-22T06:17:34.876Z,52.08
2022-10-22T06:20:08.602Z,55.28
2022-10-22T06:22:41.511Z,48.88
2022-10-22T06:25:14.295Z,68.05
2022-10-22T06:27:51.760Z,67.28
2022-10-22T06:30:24.355Z,65.03
2022-10-22T06:32:57.134Z,65.30
2022-10-22T06:35:29.681Z,64.47
2022-10-22T06:38:02.399Z,66.60
2022-10-22T06:40:34.935Z,70.60
2022-10-22T06:43:07.679Z,66.03
2022-10-22T06:45:40.811Z,73.63
2022-10-22T06:48:13.497Z,69.53
2022-10-22T06:50:45.946Z,66.05
2022-10-22T06:53:18.645Z,73.68
2022-10-22T06:55:51.221Z,70.68
2022-10-22T06:58:24.053Z,73.13
2022-10-22T07:01:05.475Z,69.40
2022-10-22T07:03:39.877Z,70.70
2022-10-22T07:06:14.546Z,75.25
2022-10-22T07:08:47.338Z,73.25
2022-10-22T07:11:22.282Z,76.82
2022-10-22T07:13:59.903Z,74.47
2022-10-22T07:16:32.720Z,78.63
2022-10-22T07:19:05.670Z,84.90
2022-10-22T07:21:38.425Z,79.45
2022-10-22T07:24:11.154Z,82.95
2022-10-22T07:26:43.663Z,81.70
2022-10-22T07:29:16.613Z,82.32
2022-10-22T07:31:49.126Z,77.70
2022-10-22T07:34:21.935Z,82.78
2022-10-22T07:36:54.426Z,78.00
2022-10-22T07:39:27.169Z,77.20
2022-10-22T07:41:59.711Z,72.30
2022-10-22T07:44:32.430Z,74.38
2022-10-22T07:47:05.033Z,62.03
2022-10-22T07:49:38.091Z,59.45
2022-10-22T07:52:10.579Z,63.20
2022-10-22T07:54:43.269Z,68.43
2022-10-22T07:57:15.813Z,75.53
2022-10-22T07:59:48.518Z,71.95
2022-10-22T08:02:21.072Z,72.95
2022-10-22T08:04:53.784Z,65.35
2022-10-22T08:10:04.447Z,78.88
2022-10-22T08:15:34.870Z,71.10
2022-10-22T08:18:07.534Z,79.32
2022-10-22T08:20:40.949Z,70.95
2022-10-22T08:23:13.442Z,79.70
2022-10-22T08:25:46.356Z,79.75
2022-10-22T08:28:22.373Z,75.78
2022-10-22T08:30:59.432Z,89.78
2022-10-22T08:33:31.970Z,81.85
2022-10-22T08:36:05.204Z,80.95
2022-10-22T08:38:37.825Z,72.07
2022-10-22T08:41:15.911Z,74.40
2022-10-22T08:44:05.990Z,71.72
2022-10-22T08:49:37.153Z,66.43
2022-10-22T08:52:18.628Z,63.92
2022-10-22T08:55:00.872Z,52.20
2022-10-22T08:57:52.676Z,57.35
2022-10-22T09:00:42.251Z,47.53
2022-10-22T09:03:35.926Z,48.97
2022-10-22T09:06:28.363Z,50.17
2022-10-22T09:09:21.250Z,50.22
2022-10-22T09:11:58.092Z,49.28
2022-10-22T09:14:31.034Z,54.20
2022-10-22T09:17:18.625Z,51.00
2022-10-22T09:20:33.313Z,49.38
2022-10-22T09:23:34.121Z,43.50
2022-10-22T09:26:15.602Z,52.03
2022-10-22T09:28:51.785Z,44.78
2022-10-22T09:31:29.013Z,54.00
2022-10-22T09:34:06.206Z,49.95
2022-10-22T09:36:39.022Z,49.58
2022-10-22T09:39:41.618Z,47.72
2022-10-22T09:42:16.898Z,50.70
2022-10-22T09:44:58.645Z,49.92
2022-10-22T09:48:00.963Z,51.53
2022-10-22T09:50:47.349Z,43.00
2022-10-22T09:53:35.681Z,49.35
2022-10-22T09:56:28.755Z,50.60
2022-10-22T09:59:02.261Z,45.65
2022-10-22T10:01:36.517Z,44.83
2022-10-22T10:04:12.735Z,39.40
2022-10-22T10:06:45.588Z,45.78
2022-10-22T10:09:21.176Z,36.63
2022-10-22T10:12:13.792Z,43.58
2022-10-22T10:15:10.753Z,38.42
2022-10-22T10:17:58.243Z,41.90
2022-10-22T10:20:58.454Z,40.05
2022-10-22T10:23:52.041Z,43.53
2022-10-22T10:26:45.808Z,42.55
2022-10-22T10:29:23.861Z,38.55
2022-10-22T10:32:46.569Z,41.47
2022-10-22T10:35:43.211Z,42.78
2022-10-22T10:38:42.220Z,42.10
2022-10-22T10:41:51.527Z,41.35
2022-10-22T10:44:27.380Z,39.67
2022-10-22T10:47:12.119Z,38.17
2022-10-22T10:49:45.009Z,41.88
2022-10-22T10:52:44.344Z,40.15
2022-10-22T10:55:31.565Z,38.67
2022-10-22T10:58:29.660Z,45.30
2022-10-22T11:01:32.073Z,40.25
2022-10-22T11:04:22.837Z,41.92
2022-10-22T11:07:11.136Z,42.75
2022-10-22T11:10:01.680Z,47.50
2022-10-22T11:12:39.786Z,40.97
2022-10-22T11:15:22.303Z,43.35
2022-10-22T11:18:01.748Z,39.60
2022-10-22T11:20:55.387Z,48.90
2022-10-22T11:23:38.147Z,42.15
2022-10-22T11:26:19.396Z,51.92
2022-10-22T11:28:55.012Z,42.58
2022-10-22T11:31:30.304Z,42.50
2022-10-22T11:34:38.955Z,40.38
2022-10-22T11:37:13.620Z,43.38
2022-10-22T11:39:51.900Z,41.95
2022-10-22T11:42:35.448Z,47.42
2022-10-22T11:45:29.654Z,45.30
2022-10-22T11:48:11.215Z,40.15
2022-10-22T11:50:49.087Z,45.67
2022-10-22T11:53:35.400Z,42.10
2022-10-22T11:56:09.935Z,43.55
2022-10-22T11:58:50.779Z,40.70
2022-10-22T12:01:44.045Z,40.67
2022-10-22T12:04:19.529Z,41.03
2022-10-22T12:06:55.480Z,45.22
2022-10-22T12:09:32.098Z,51.17
2022-10-22T12:12:15.816Z,43.55
2022-10-22T12:14:59.968Z,47.42
2022-10-22T12:17:33.077Z,46.83
2022-10-22T12:20:12.672Z,54.22
2022-10-22T12:22:46.231Z,54.08
2022-10-22T12:25:25.111Z,54.03
2022-10-22T12:28:01.102Z,44.92
2022-10-22T12:30:35.041Z,43.65
2022-10-22T12:33:18.051Z,48.50
2022-10-22T12:38:50.295Z,57.58
2022-10-22T12:41:34.635Z,59.92
2022-10-22T12:44:07.705Z,57.75
2022-10-22T12:46:42.164Z,60.40
2022-10-22T12:49:21.367Z,55.88
2022-10-22T12:51:54.803Z,50.35
2022-10-22T12:54:29.806Z,53.63
2022-10-22T12:57:02.989Z,60.58
2022-10-22T12:59:38.126Z,55.65
2022-10-22T13:02:25.430Z,63.20
2022-10-22T13:05:20.137Z,52.97
2022-10-22T13:07:55.317Z,60.95
2022-10-22T13:10:33.431Z,64.72
2022-10-22T13:13:09.211Z,55.53
2022-10-22T13:15:42.159Z,47.55
2022-10-22T13:18:23.868Z,55.72
2022-10-22T13:20:58.863Z,51.90
2022-10-22T13:23:33.842Z,51.22
2022-10-22T13:26:17.983Z,44.92
2022-10-22T13:28:55.658Z,44.65
2022-10-22T13:31:33.533Z,43.10
2022-10-22T13:34:11.837Z,42.85
2022-10-22T13:36:47.158Z,45.25
2022-10-22T13:39:23.183Z,42.63
2022-10-22T13:41:55.967Z,40.85
2022-10-22T13:44:28.502Z,43.35
2022-10-22T13:47:01.198Z,46.35
2022-10-22T13:49:33.748Z,42.75
2022-10-22T13:52:06.439Z,41.75
2022-10-22T13:54:39.253Z,38.38
2022-10-22T13:57:11.986Z,32.92
2022-10-22T13:59:44.533Z,32.97
2022-10-22T14:02:18.587Z,35.38
2022-10-22T14:04:51.571Z,33.60
2022-10-22T14:07:24.343Z,35.13
2022-10-22T14:09:56.886Z,31.15
2022-10-22T14:12:29.610Z,30.92
2022-10-22T14:15:02.249Z,32.65
2022-10-22T14:17:34.987Z,28.77
2022-10-22T14:20:10.048Z,28.20
2022-10-22T14:22:42.781Z,29.50
2022-10-22T14:25:18.744Z,30.75
2022-10-22T14:27:51.853Z,26.02
2022-10-22T14:30:26.418Z,28.48
2022-10-22T14:32:59.251Z,26.77
2022-10-22T14:35:31.746Z,26.50
2022-10-22T14:38:04.434Z,26.08
2022-10-22T14:40:39.075Z,25.05
2022-10-22T14:43:23.658Z,24.60
2022-10-22T14:45:56.188Z,23.33
2022-10-22T14:48:28.888Z,23.65
2022-10-22T14:51:01.403Z,30.25
2022-10-22T14:53:34.090Z,31.33
2022-10-22T14:56:06.671Z,30.40
2022-10-22T14:58:40.384Z,30.52
2022-10-22T15:01:13.227Z,24.02
2022-10-22T15:03:46.255Z,26.10
2022-10-22T15:06:18.716Z,24.92
2022-10-22T15:08:51.476Z,23.52
2022-10-22T15:11:24.078Z,21.98
2022-10-22T15:13:56.793Z,24.95
2022-10-22T15:16:29.508Z,20.52
2022-10-22T15:19:02.475Z,21.42
2022-10-22T15:21:34.985Z,22.35
2022-10-22T15:24:07.753Z,21.17
2022-10-22T15:26:40.385Z,21.55
2022-10-22T15:29:13.137Z,18.38
2022-10-22T15:31:52.937Z,16.98
2022-10-22T15:34:29.184Z,19.15
2022-10-22T15:37:07.365Z,20.17
2022-10-22T15:39:41.066Z,21.48
2022-10-22T15:42:16.484Z,16.83
2022-10-22T15:44:49.205Z,19.50
2022-10-22T15:47:22.680Z,25.33
2022-10-22T15:49:55.854Z,22.55
2022-10-22T15:52:28.612Z,21.15
2022-10-22T15:55:04.218Z,18.58
2022-10-22T15:57:37.488Z,18.48
2022-10-22T16:00:11.271Z,16.88
2022-10-22T16:02:43.819Z,17.95
2022-10-22T16:05:16.729Z,17.55
2022-10-22T16:07:49.917Z,17.92
2022-10-22T16:10:22.849Z,32.28
2022-10-22T16:12:56.688Z,17.40
2022-10-22T16:15:29.453Z,16.65
2022-10-22T16:18:02.005Z,17.30
2022-10-22T16:20:39.825Z,14.00
2022-10-22T16:23:12.368Z,14.32
2022-10-22T16:25:46.201Z,14.52
2022-10-22T16:28:18.760Z,13.60
2022-10-22T16:30:51.476Z,18.15
2022-10-22T16:33:24.279Z,15.43
2022-10-22T16:35:57.115Z,15.55
2022-10-22T16:38:29.710Z,15.90
2022-10-22T16:41:16.813Z,15.55
2022-10-22T16:43:51.046Z,11.05
2022-10-22T16:46:23.911Z,17.90
2022-10-22T16:48:56.907Z,15.30
2022-10-22T16:51:29.738Z,18.40
2022-10-22T16:54:03.700Z,17.15
2022-10-22T16:56:38.445Z,23.73
2022-10-22T16:59:10.987Z,18.45
2022-10-22T17:01:46.017Z,18.42
2022-10-22T17:04:18.700Z,24.80
2022-10-22T17:06:51.564Z,23.52
2022-10-22T17:09:24.345Z,23.55
2022-10-22T17:11:57.074Z,23.13
2022-10-22T17:14:29.612Z,26.17
2022-10-22T17:17:02.390Z,26.13
2022-10-22T17:19:38.781Z,24.77
2022-10-22T17:22:14.846Z,28.05
2022-10-22T17:25:15.148Z,29.67
2022-10-22T17:27:48.575Z,25.77
2022-10-22T17:30:24.938Z,30.17
2022-10-22T17:32:59.944Z,22.83
2022-10-22T17:35:33.447Z,12.25
2022-10-22T17:38:06.902Z,31.92
2022-10-22T17:40:39.452Z,32.95
2022-10-22T17:43:12.644Z,30.27
2022-10-22T17:45:45.608Z,29.02
2022-10-22T17:48:18.651Z,29.13
2022-10-22T17:50:52.849Z,32.45
2022-10-22T17:53:28.435Z,29.08
2022-10-22T17:56:10.037Z,31.55
2022-10-22T17:58:42.891Z,30.38
2022-10-22T18:01:21.285Z,35.65
2022-10-22T18:03:55.526Z,38.47
2022-10-22T18:06:28.964Z,38.47
2022-10-22T18:09:06.275Z,30.52
2022-10-22T18:11:39.056Z,36.33
2022-10-22T18:14:11.927Z,32.55
2022-10-22T18:16:45.337Z,28.42
2022-10-22T18:19:20.580Z,34.85
2022-10-22T18:21:53.222Z,29.73
2022-10-22T18:24:26.145Z,34.42
2022-10-22T18:26:58.702Z,41.38
2022-10-22T18:29:31.518Z,32.38
2022-10-22T18:32:08.325Z,40.65
2022-10-22T18:34:44.964Z,21.77
2022-10-22T18:37:17.602Z,30.92
2022-10-22T18:39:50.552Z,41.08
2022-10-22T18:42:25.430Z,39.45
2022-10-22T18:45:00.419Z,20.67
2022-10-22T18:47:33.034Z,36.70
2022-10-22T18:50:06.259Z,39.33
2022-10-22T18:52:39.211Z,40.55
2022-10-22T18:55:12.774Z,40.70
2022-10-22T18:57:45.314Z,39.08
2022-10-22T19:00:18.159Z,38.35
2022-10-22T19:02:50.776Z,38.97
2022-10-22T19:05:23.684Z,40.42
2022-10-22T19:07:56.221Z,38.50
2022-10-22T19:10:29.247Z,38.58
2022-10-22T19:13:01.784Z,40.88
2022-10-22T19:15:34.636Z,39.88
2022-10-22T19:18:07.586Z,45.00
2022-10-22T19:20:40.456Z,43.00
2022-10-22T19:23:20.566Z,42.75
2022-10-22T19:26:04.366Z,41.08
2022-10-22T19:28:38.254Z,39.50
2022-10-22T19:31:23.428Z,38.10
2022-10-22T19:34:06.906Z,37.35
2022-10-22T19:36:44.983Z,36.75
2022-10-22T19:39:18.006Z,42.00
2022-10-22T19:41:53.577Z,31.80
2022-10-22T19:44:26.087Z,36.55
2022-10-22T19:47:02.290Z,35.17
2022-10-22T19:49:34.791Z,40.10
2022-10-22T19:52:10.513Z,34.88
2022-10-22T19:54:45.771Z,39.13
2022-10-22T19:57:43.720Z,37.50
2022-10-22T20:00:17.056Z,36.38
2022-10-22T20:02:50.052Z,42.28
2022-10-22T20:07:55.573Z,34.20
2022-10-22T20:10:51.240Z,49.47
2022-10-22T20:17:24.875Z,40.03
2022-10-22T20:23:18.856Z,42.42
2022-10-22T20:25:51.597Z,44.40
2022-10-22T20:28:27.037Z,41.38
2022-10-22T20:30:59.916Z,46.40
2022-10-22T20:33:32.408Z,29.58
2022-10-22T20:36:08.291Z,46.58
2022-10-22T20:38:40.804Z,42.13
2022-10-22T20:41:16.934Z,46.22
2022-10-22T20:43:51.110Z,46.83
2022-10-22T20:46:26.536Z,40.22
2022-10-22T20:49:09.020Z,44.78
2022-10-22T20:51:42.257Z,45.05
2022-10-22T20:54:15.790Z,45.17
2022-10-22T20:56:48.728Z,41.33
2022-10-22T20:59:21.907Z,39.70
2022-10-22T21:01:54.779Z,44.58
2022-10-22T21:04:28.421Z,40.40
2022-10-22T21:07:01.296Z,44.30
2022-10-22T21:09:34.767Z,46.22
2022-10-22T21:12:07.567Z,45.40
2022-10-22T21:14:41.705Z,43.33
2022-10-22T21:17:14.545Z,40.97
2022-10-22T21:19:47.180Z,57.53
2022-10-22T21:22:20.187Z,44.75
2022-10-22T21:24:52.727Z,53.85
2022-10-22T21:27:25.844Z,27.67
2022-10-22T21:29:58.989Z,55.83
2022-10-22T21:32:31.775Z,46.80
2022-10-22T21:35:04.503Z,44.97
2022-10-22T21:37:37.279Z,48.15
2022-10-22T21:40:10.450Z,46.28
2022-10-22T21:42:43.331Z,51.25
2022-10-22T21:45:19.878Z,34.92
2022-10-22T21:47:54.278Z,49.38
2022-10-22T21:50:26.864Z,49.25
2022-10-22T21:52:59.808Z,29.42
2022-10-22T21:55:35.256Z,43.88
2022-10-22T21:58:08.423Z,53.75
2022-10-22T22:00:41.059Z,47.78
2022-10-22T22:03:13.769Z,42.75
2022-10-22T22:05:46.279Z,43.85
2022-10-22T22:08:19.288Z,44.58
2022-10-22T22:10:52.333Z,56.40
2022-10-22T22:13:40.415Z,55.90
2022-10-22T22:16:19.528Z,58.05
2022-10-22T22:18:54.175Z,58.30
2022-10-22T22:21:26.945Z,24.15
2022-10-22T22:23:59.879Z,59.55
2022-10-22T22:26:32.947Z,59.58
2022-10-22T22:29:05.783Z,47.47
2022-10-22T22:31:38.593Z,70.78
2022-10-22T22:34:14.211Z,56.58
2022-10-22T22:36:48.087Z,53.25
2022-10-22T22:39:23.175Z,50.28
2022-10-22T22:41:55.698Z,53.58
2022-10-22T22:44:28.729Z,63.10
2022-10-22T22:47:01.303Z,51.70
2022-10-22T22:49:35.542Z,59.78
2022-10-22T22:52:08.900Z,64.38
2022-10-22T22:54:41.691Z,56.40
2022-10-22T22:57:15.563Z,60.58
2022-10-22T22:59:50.572Z,60.05
2022-10-22T23:02:23.155Z,44.92
2022-10-22T23:04:58.826Z,50.22
2022-10-22T23:07:34.654Z,52.00
2022-10-22T23:10:07.665Z,49.85
2022-10-22T23:12:40.704Z,54.88
2022-10-22T23:15:13.782Z,55.03
2022-10-22T23:17:46.310Z,53.58
2022-10-22T23:20:19.071Z,47.70
2022-10-22T23:22:51.603Z,57.00
2022-10-22T23:25:24.347Z,54.63
2022-10-22T23:27:56.991Z,45.85
2022-10-22T23:30:29.751Z,60.45
2022-10-22T23:33:02.371Z,60.50
2022-10-22T23:35:35.087Z,25.67
2022-10-22T23:38:07.967Z,49.17
2022-10-22T23:40:40.741Z,45.83
2022-10-22T23:43:13.274Z,59.45
2022-10-22T23:45:46.037Z,38.00
2022-10-22T23:48:19.102Z,57.90
2022-10-22T23:53:24.383Z,68.35
2022-10-22T23:55:57.129Z,60.83
2022-10-22T23:58:29.673Z,66.30
